San Vicente (176, 240) Station Data

Red Flag Warning: No
Fire Weather Zone: 250
SDGE Region: Eastern
Lat/Lon: 32.913/-116.952

Observations

Time Wind Speed/Gust Temp(F) RH Fuel Moist Fuel Temp(F) Dewpt(F) Tmax(F) Tmin(F) Accum Precip 10-min Precip SL Press(mb)
6/22 4:50am 337 2 G 4 62° 100% - - 62° 62.9° 58.8° - - 909.0
6/22 4:40am 325 2 G 3 62° 100% - - 62° 62.9° 58.8° - - 909.0
6/22 4:30am 356 1 G 2 62° 100% - - 62° 62.9° 58.8° - - 909.0
6/22 4:20am 305 0 G 2 62° 100% - - 62° 62.9° 58.8° - - 908.0
6/22 4:10am 191 1 G 2 62° 100% - - 62° 62.9° 58.8° - - 908.0
6/22 4:00am 278 1 G 2 62° 100% - - 62° 62.9° 58.8° - - 908.0
6/22 3:50am 191 1 G 3 62° 100% - - 62° 62.9° 58.8° - - 908.0
6/22 3:40am 196 1 G 2 62° 100% - - 62° 62.9° 58.8° - - 908.0
6/22 3:30am 26 0 G 2 62° 100% - - 62° 62.9° 58.8° - - 908.0
6/22 3:20am 320 1 G 2 62° 100% - - 62° 62.9° 58.8° - - 908.0
6/22 3:10am 299 1 G 3 62° 100% - - 62° 62.9° 58.8° - - 908.0
6/22 3:00am 207 2 G 4 62° 100% - - 62° 62.9° 58.8° - - 908.0
6/22 2:50am 242 1 G 3 62° 100% - - 62° 62.9° 58.8° - - 907.0
6/22 2:40am 287 1 G 3 62° 100% - - 62° 62.9° 58.8° - - 907.0
6/22 2:30am 281 1 G 2 62° 100% - - 62° 62.9° 58.8° - - 907.0
6/22 2:20am 297 1 G 1 61° 100% - - 61° 62.9° 58.8° - - 906.0
6/22 2:10am 351 1 G 2 61° 100% - - 61° 62.9° 58.8° - - 907.0
6/22 2:00am 312 1 G 1 59° 100% - - 59° 62.9° 58.8° - - 906.0
6/22 1:50am 316 1 G 2 59° 100% - - 59° 62.9° 58.9° - - 905.0
6/22 1:40am 313 1 G 2 60° 100% - - 60° 62.9° 59.2° - - 905.0
6/22 1:30am 318 0 G 1 60° 100% - - 60° 62.9° 59.7° - - 905.0
6/22 1:20am 308 0 G 0 60° 100% - - 60° 62.9° 60.1° - - 904.0
6/22 1:10am 326 1 G 2 61° 100% - - 61° 62.9° 60.2° - - 904.0
6/22 1:00am 308 0 G 1 61° 100% - - 61° 62.9° 60.5° - - 903.0
6/22 12:50am 304 0 G 1 62° 100% - - 62° 62.9° 61.2° - - 902.0
6/22 12:40am 325 0 G 2 62° 100% - - 62° 62.9° 61.7° - - 902.0
6/22 12:30am 315 0 G 1 62° 100% - - 62° 62.9° 61.9° - - 901.0
6/22 12:20am 320 1 G 3 63° 100% - - 63° 62.9° 62.1° - - 900.0
6/22 12:10am 324 2 G 3 63° 100% - - 63° 62.9° 62.1° - - 900.0
6/22 12:00am 319 1 G 2 63° 100% - - 63° 95.7° 56.6° - - 898.0
6/21 11:50pm 320 1 G 3 63° 98% - - 62° 95.7° 56.6° - - 897.0
6/21 11:40pm 314 1 G 2 63° 96% - - 62° 95.7° 56.6° - - 896.0
6/21 11:30pm 311 1 G 2 63° 90% - - 60° 95.7° 56.6° - - 893.0
6/21 11:20pm 300 1 G 2 64° 85% - - 59° 95.7° 56.6° - - 892.0
6/21 11:10pm 323 1 G 2 65° 82% - - 59° 95.7° 56.6° - - 891.0
6/21 11:00pm 330 2 G 2 65° 81% - - 59° 95.7° 56.6° - - 890.0
6/21 10:50pm 327 2 G 3 66° 77% - - 58° 95.7° 56.6° - - 889.0
6/21 10:40pm 313 0 G 2 66° 75% - - 58° 95.7° 56.6° - - 888.0
6/21 10:30pm 301 1 G 2 67° 73% - - 58° 95.7° 56.6° - - 888.0
6/21 10:20pm 324 1 G 2 67° 71% - - 58° 95.7° 56.6° - - 887.0
6/21 10:10pm 312 1 G 2 68° 70% - - 58° 95.7° 56.6° - - 887.0
6/21 10:00pm 297 1 G 1 69° 68% - - 58° 95.7° 56.6° - - 886.0
6/21 9:50pm 250 1 G 3 70° 66% - - 58° 95.7° 56.6° - - 886.0
6/21 9:40pm 70 1 G 4 71° 64% - - 58° 95.7° 56.6° - - 886.0
6/21 9:30pm 35 1 G 5 70° 65% - - 58° 95.7° 56.6° - - 886.0
6/21 9:20pm 0 0 G 0 71° 63% - - 58° 95.7° 56.6° - - 885.0
6/21 9:10pm 323 2 G 4 72° 62% - - 58° 95.7° 56.6° - - 885.0
6/21 9:00pm 311 2 G 5 72° 61% - - 58° 95.7° 56.6° - - 885.0
6/21 8:50pm 320 2 G 4 73° 59% - - 58° 95.7° 56.6° - - 884.0
6/21 8:40pm 319 5 G 7 74° 58% - - 58° 95.7° 56.6° - - 884.0
6/21 8:30pm 321 5 G 7 75° 57% - - 58° 95.7° 56.6° - - 884.0
6/21 8:20pm 316 4 G 7 75° 55% - - 58° 95.7° 56.6° - - 884.0
6/21 8:10pm 318 4 G 6 76° 54% - - 58° 95.7° 56.6° - - 884.0
6/21 8:00pm 319 3 G 6 77° 52% - - 58° 95.7° 56.6° - - 884.0
6/21 7:50pm 304 2 G 5 78° 50% - - 58° 95.7° 56.6° - - 883.0
6/21 7:40pm 283 2 G 4 79° 48% - - 58° 95.7° 56.6° - - 884.0
6/21 7:30pm 275 2 G 5 80° 47% - - 58° 95.7° 56.6° - - 884.0
6/21 7:20pm 281 2 G 4 81° 45% - - 58° 95.7° 56.6° - - 884.0
6/21 7:10pm 237 2 G 5 81° 45% - - 58° 95.7° 56.6° - - 884.0
6/21 7:00pm 248 3 G 6 82° 43% - - 57° 95.7° 56.6° - - 884.0
6/21 6:50pm 249 3 G 7 83° 41% - - 57° 95.7° 56.6° - - 884.0
6/21 6:40pm 258 3 G 7 85° 39% - - 57° 95.7° 56.6° - - 883.0
6/21 6:30pm 267 3 G 6 85° 38% - - 57° 95.7° 56.6° - - 883.0
6/21 6:20pm 245 3 G 7 86° 38% - - 57° 95.7° 56.6° - - 883.0
6/21 6:10pm 254 3 G 7 86° 36% - - 56° 95.7° 56.6° - - 883.0
6/21 6:00pm 242 3 G 6 86° 36% - - 56° 95.7° 56.6° - - 883.0
6/21 5:50pm 226 4 G 8 86° 37% - - 56° 95.7° 56.6° - - 883.0
6/21 5:40pm 254 4 G 9 87° 34% - - 56° 95.7° 56.6° - - 883.0
6/21 5:30pm 228 5 G 9 86° 35% - - 56° 95.7° 56.6° - - 883.0
6/21 5:20pm 210 5 G 10 87° 35% - - 55° 95.7° 56.6° - - 883.0
6/21 5:10pm 208 5 G 11 87° 34% - - 55° 95.7° 56.6° - - 883.0
6/21 5:00pm 213 4 G 10 88° 34% - - 56° 95.7° 56.6° - - 883.0
6/21 4:50pm 217 5 G 11 88° 34% - - 56° 95.7° 56.6° - - 883.0
6/21 4:40pm 212 5 G 9 89° 33% - - 56° 95.7° 56.6° - - 883.0
6/21 4:30pm 229 4 G 9 90° 31% - - 55° 95.7° 56.6° - - 883.0
6/21 4:20pm 227 6 G 10 89° 32% - - 55° 95.7° 56.6° - - 883.0
6/21 4:10pm 231 5 G 10 89° 32% - - 55° 95.7° 56.6° - - 883.0
6/21 4:00pm 214 5 G 10 90° 32% - - 55° 95.7° 56.6° - - 883.0
6/21 3:50pm 218 5 G 11 90° 31% - - 55° 95.7° 56.6° - - 883.0
6/21 3:40pm 213 6 G 13 90° 31% - - 55° 95.7° 56.6° - - 883.0
6/21 3:30pm 220 6 G 11 90° 31% - - 55° 95.7° 56.6° - - 883.0
6/21 3:20pm 229 5 G 11 92° 29% - - 55° 95.7° 56.6° - - 882.0
6/21 3:10pm 229 4 G 11 92° 28% - - 55° 95.7° 56.6° - - 882.0
6/21 3:00pm 262 4 G 8 93° 27% - - 55° 95.7° 56.6° - - 882.0
6/21 2:50pm 245 4 G 9 93° 28% - - 55° 95.7° 56.6° - - 882.0
6/21 2:40pm 243 5 G 11 92° 29% - - 55° 95.7° 56.6° - - 882.0
6/21 2:30pm 229 5 G 11 93° 28% - - 55° 95.7° 56.6° - - 882.0
6/21 2:20pm 229 4 G 9 93° 28% - - 55° 95.7° 56.6° - - 881.0
6/21 2:10pm 240 5 G 11 93° 28% - - 55° 95.7° 56.6° - - 881.0
6/21 2:00pm 237 6 G 13 93° 28% - - 55° 95.7° 56.6° - - 882.0
6/21 1:50pm 209 6 G 10 93° 28% - - 55° 95.7° 56.6° - - 882.0
6/21 1:40pm 208 6 G 10 94° 28% - - 55° 95.7° 56.6° - - 882.0
6/21 1:30pm 210 5 G 10 94° 28% - - 56° 95.7° 56.6° - - 882.0
6/21 1:20pm 219 5 G 10 94° 28% - - 56° 95.7° 56.6° - - 881.0
6/21 1:10pm 217 5 G 11 94° 27% - - 55° 95.7° 56.6° - - 881.0
6/21 1:00pm 216 5 G 10 95° 26% - - 55° 95.7° 56.6° - - 881.0
6/21 12:50pm 219 4 G 9 94° 27% - - 55° 95.3° 56.6° - - 881.0
6/21 12:40pm 216 3 G 8 94° 27% - - 55° 95.3° 56.6° - - 881.0
6/21 12:30pm 218 4 G 8 94° 28% - - 56° 95.3° 56.6° - - 881.0
6/21 12:20pm 215 5 G 9 93° 29% - - 56° 95.3° 56.6° - - 881.0
6/21 12:10pm 216 4 G 8 94° 28% - - 56° 95.3° 56.6° - - 881.0
6/21 12:00pm 212 4 G 9 93° 29% - - 56° 95.3° 56.6° - - 881.0
6/21 11:50am 263 5 G 10 94° 28% - - 56° 95.3° 56.6° - - 881.0
6/21 11:40am 164 3 G 8 94° 28% - - 56° 94.9° 56.6° - - 881.0
6/21 11:30am 113 4 G 9 92° 30% - - 56° 92.9° 56.6° - - 881.0
6/21 11:20am 132 4 G 8 91° 31% - - 57° 91.9° 56.6° - - 881.0
6/21 11:10am 109 4 G 7 90° 33% - - 57° 90.7° 56.6° - - 881.0
6/21 11:00am 113 5 G 8 89° 34% - - 57° 89.4° 56.6° - - 881.0
6/21 10:50am 110 4 G 8 88° 36% - - 58° 88.2° 56.6° - - 881.0
6/21 10:40am 107 5 G 8 87° 38% - - 58° 87.3° 56.6° - - 881.0
6/21 10:30am 112 4 G 7 85° 40% - - 58° 85.8° 56.6° - - 881.0
6/21 10:20am 137 4 G 7 85° 42% - - 59° 85.6° 56.6° - - 882.0
6/21 10:10am 131 5 G 7 83° 44% - - 59° 84.3° 56.6° - - 882.0
6/21 10:00am 123 4 G 7 82° 46% - - 59° 82.8° 56.6° - - 882.0
6/21 9:50am 114 4 G 6 81° 48% - - 59° 81.4° 56.6° - - 883.0
6/21 9:40am 132 4 G 6 80° 50% - - 59° 80.2° 56.6° - - 883.0
6/21 9:30am 119 4 G 7 79° 52% - - 59° 79.2° 56.6° - - 883.0
6/21 9:20am 135 4 G 6 78° 54% - - 60° 78.5° 56.6° - - 884.0
6/21 9:10am 140 3 G 6 76° 56% - - 59° 76.8° 56.6° - - 884.0
6/21 9:00am 129 4 G 6 75° 58% - - 59° 75.4° 56.6° - - 884.0
6/21 8:50am 121 3 G 4 74° 60% - - 59° 74.7° 56.6° - - 885.0
6/21 8:40am 146 2 G 4 73° 63% - - 60° 73.8° 56.6° - - 886.0
6/21 8:30am 131 3 G 5 72° 65% - - 59° 72.4° 56.6° - - 886.0
6/21 8:20am 116 2 G 4 71° 72% - - 61° 71.3° 56.6° - - 889.0
6/21 8:10am 105 2 G 3 70° 86% - - 66° 70.5° 56.6° - - 895.0
6/21 8:00am 106 1 G 2 69° 98% - - 68° 69.6° 56.6° - - 900.0
6/21 7:50am 109 1 G 2 67° 100% - - 67° 68° 56.6° - - 902.0
6/21 7:40am 124 1 G 3 66° 100% - - 66° 67° 56.6° - - 905.0
6/21 7:30am 91 1 G 2 65° 100% - - 65° 65.8° 56.6° - - 907.0
6/21 7:20am 120 1 G 3 64° 100% - - 64° 64.6° 56.6° - - 908.0
6/21 7:10am 151 0 G 2 63° 100% - - 63° 64.6° 56.6° - - 909.0
6/21 7:00am 308 0 G 1 61° 100% - - 61° 64.6° 56.6° - - 909.0
6/21 6:50am 309 0 G 1 60° 100% - - 60° 64.6° 56.6° - - 908.0
6/21 6:40am 305 0 G 1 58° 100% - - 58° 64.6° 56.6° - - 908.0
6/21 6:30am 295 1 G 2 58° 100% - - 58° 64.6° 56.6° - - 908.0
6/21 6:20am 315 2 G 3 58° 100% - - 58° 64.6° 56.6° - - 908.0
6/21 6:10am 316 1 G 2 57° 100% - - 57° 64.6° 56.6° - - 908.0
6/21 6:00am 299 1 G 2 57° 100% - - 57° 64.6° 56.6° - - 907.0
6/21 5:50am 310 1 G 1 57° 100% - - 57° 64.6° 56.6° - - 907.0
6/21 5:40am 308 1 G 2 57° 100% - - 57° 64.6° 56.6° - - 907.0
6/21 5:30am 315 1 G 2 57° 100% - - 57° 64.6° 56.7° - - 907.0
6/21 5:20am 313 2 G 3 58° 100% - - 58° 64.6° 57.3° - - 907.0
6/21 5:10am 317 1 G 2 58° 100% - - 58° 64.6° 57.5° - - 907.0
6/21 5:00am 308 1 G 2 58° 100% - - 58° 64.6° 57.5° - - 907.0
6/21 4:50am 306 1 G 2 58° 100% - - 58° 64.6° 57.5° - - 907.0
6/21 4:40am 309 2 G 3 58° 100% - - 58° 64.6° 57.5° - - 907.0
6/21 4:30am 312 1 G 3 58° 100% - - 58° 64.6° 57.5° - - 906.0
6/21 4:20am 320 1 G 2 58° 100% - - 58° 64.6° 57.9° - - 907.0
6/21 4:10am 302 1 G 3 58° 100% - - 58° 64.6° 57.9° - - 906.0
6/21 4:00am 318 1 G 3 58° 100% - - 58° 64.6° 58° - - 906.0
6/21 3:50am 316 1 G 2 59° 100% - - 59° 64.6° 58.3° - - 906.0
6/21 3:40am 323 1 G 2 60° 100% - - 60° 64.6° 58.8° - - 906.0
6/21 3:30am 309 1 G 3 59° 100% - - 59° 64.6° 58.9° - - 906.0
6/21 3:20am 312 1 G 3 59° 100% - - 59° 64.6° 59° - - 906.0
6/21 3:10am 312 1 G 3 59° 100% - - 59° 64.6° 59° - - 906.0
6/21 3:00am 309 1 G 2 60° 100% - - 60° 64.6° 59.3° - - 905.0
6/21 2:50am 307 2 G 3 60° 100% - - 60° 64.6° 59.5° - - 905.0
6/21 2:40am 309 1 G 2 60° 100% - - 60° 64.6° 59.5° - - 905.0
6/21 2:30am 318 2 G 3 60° 100% - - 60° 64.6° 59.7° - - 905.0
6/21 2:20am 317 1 G 2 60° 100% - - 60° 64.6° 60.1° - - 904.0
6/21 2:10am 315 1 G 1 61° 100% - - 61° 64.6° 60.3° - - 904.0
6/21 2:00am 318 2 G 2 61° 100% - - 61° 64.6° 60.3° - - 903.0
6/21 1:50am 319 1 G 2 61° 100% - - 61° 64.6° 61° - - 903.0
6/21 1:40am 307 1 G 2 61° 100% - - 61° 64.6° 61° - - 902.0
6/21 1:30am 301 1 G 2 62° 100% - - 62° 64.6° 61.3° - - 901.0
6/21 1:20am 303 1 G 2 62° 100% - - 62° 64.6° 61.6° - - 900.0
6/21 1:10am 301 1 G 2 62° 100% - - 62° 64.6° 61.6° - - 898.0
6/21 1:00am 305 2 G 3 62° 100% - - 62° 64.6° 62° - - 898.0
6/21 12:50am 316 1 G 3 62° 95% - - 61° 64.6° 62° - - 895.0
6/21 12:40am 303 1 G 2 63° 92% - - 60° 64.6° 62.3° - - 894.0
6/21 12:30am 317 2 G 3 63° 85% - - 58° 64.6° 62.4° - - 891.0
6/21 12:20am 314 2 G 3 64° 80% - - 57° 64.6° 63.3° - - 890.0
6/21 12:10am 308 1 G 2 64° 79% - - 58° 64.6° 64° - - 889.0
6/21 12:00am 303 2 G 3 65° 78% - - 57° 100.6° 59.3° - - 889.0
6/20 11:50pm 310 2 G 3 65° 75% - - 57° 100.6° 59.3° - - 888.0
6/20 11:40pm 321 2 G 3 65° 73% - - 56° 100.6° 59.3° - - 887.0
6/20 11:30pm 308 0 G 2 66° 71% - - 56° 100.6° 59.3° - - 887.0
6/20 11:20pm 312 2 G 3 66° 71% - - 56° 100.6° 59.3° - - 887.0
6/20 11:10pm 312 2 G 3 66° 69% - - 56° 100.6° 59.3° - - 886.0
6/20 11:00pm 314 2 G 3 67° 68% - - 56° 100.6° 59.3° - - 886.0
6/20 10:50pm 305 1 G 3 67° 66% - - 56° 100.6° 59.3° - - 885.0
6/20 10:40pm 318 1 G 2 68° 65% - - 56° 100.6° 59.3° - - 885.0
6/20 10:30pm 321 2 G 3 69° 63% - - 55° 100.6° 59.3° - - 884.0
6/20 10:20pm 325 2 G 4 69° 61% - - 55° 100.6° 59.3° - - 884.0
6/20 10:10pm 324 2 G 3 70° 59% - - 55° 100.6° 59.3° - - 883.0
6/20 10:00pm 326 1 G 2 70° 58% - - 55° 100.6° 59.3° - - 883.0
6/20 9:50pm 325 1 G 3 71° 56% - - 55° 100.6° 59.3° - - 882.0
6/20 9:40pm 322 1 G 2 71° 56% - - 55° 100.6° 59.3° - - 882.0
6/20 9:30pm 316 1 G 3 71° 55% - - 54° 100.6° 59.3° - - 882.0
6/20 9:20pm 321 1 G 3 72° 53% - - 54° 100.6° 59.3° - - 882.0
6/20 9:10pm 311 2 G 3 73° 52% - - 55° 100.6° 59.3° - - 882.0
6/20 9:00pm 316 1 G 2 74° 51% - - 54° 100.6° 59.3° - - 882.0
6/20 8:50pm 305 2 G 3 74° 50% - - 55° 100.6° 59.3° - - 882.0
6/20 8:40pm 309 2 G 3 75° 49% - - 55° 100.6° 59.3° - - 882.0
6/20 8:30pm 306 1 G 3 76° 48% - - 55° 100.6° 59.3° - - 882.0
6/20 8:20pm 320 2 G 2 77° 46% - - 55° 100.6° 59.3° - - 882.0
6/20 8:10pm 312 2 G 3 79° 43% - - 54° 100.6° 59.3° - - 881.0
6/20 8:00pm 312 2 G 4 80° 40% - - 54° 100.6° 59.3° - - 881.0
6/20 7:50pm 305 2 G 3 82° 38% - - 54° 100.6° 59.3° - - 881.0
6/20 7:40pm 1 0 G 2 84° 34% - - 53° 100.6° 59.3° - - 881.0
6/20 7:30pm 313 2 G 3 86° 32% - - 53° 100.6° 59.3° - - 881.0
6/20 7:20pm 309 3 G 5 87° 30% - - 52° 100.6° 59.3° - - 881.0
6/20 7:10pm 308 3 G 4 89° 29% - - 52° 100.6° 59.3° - - 881.0
6/20 7:00pm 320 2 G 5 90° 27% - - 52° 100.6° 59.3° - - 881.0
6/20 6:50pm 311 2 G 6 91° 27% - - 52° 100.6° 59.3° - - 881.0
6/20 6:40pm 320 4 G 8 90° 27% - - 52° 100.6° 59.3° - - 881.0
6/20 6:30pm 309 6 G 10 90° 27% - - 52° 100.6° 59.3° - - 881.0
6/20 6:20pm 294 5 G 10 91° 26% - - 52° 100.6° 59.3° - - 881.0
6/20 6:10pm 281 6 G 11 91° 26% - - 52° 100.6° 59.3° - - 881.0
6/20 6:00pm 291 7 G 12 91° 27% - - 52° 100.6° 59.3° - - 882.0